Time;durP1;ratioP1;P1;durP2;ratioP2;P2;SDS_P1;SDS_P2;PMS_P1;PMS_P2;Temp;Humidity;BMP_temperature;BMP_pressure;BME280_temperature;BME280_humidity;BME280_pressure;Samples;Min_cycle;Max_cycle;Signal;HPM_P1;HPM_P2
2021/09/10 00:00:33;;;;;;;9.60;8.23;;;19.00;99.90;;;;;;5038669;28;20177;-84
2021/09/10 00:02:59;;;;;;;8.80;7.90;;;18.90;99.90;;;;;;5023540;28;20169;-84
2021/09/10 00:05:24;;;;;;;9.90;8.83;;;19.10;99.90;;;;;;5023129;28;20169;-84
2021/09/10 00:07:50;;;;;;;11.87;9.43;;;19.10;99.90;;;;;;5038194;28;20650;-84
2021/09/10 00:10:16;;;;;;;7.23;6.63;;;18.90;99.90;;;;;;5021673;28;20200;-84
2021/09/10 00:12:42;;;;;;;8.57;7.77;;;18.90;99.90;;;;;;4989169;28;20189;-84
2021/09/10 00:15:08;;;;;;;10.50;8.70;;;18.90;99.90;;;;;;5023626;28;20161;-83
2021/09/10 00:17:34;;;;;;;8.87;8.00;;;18.70;99.90;;;;;;5022910;28;20166;-83
2021/09/10 00:20:00;;;;;;;11.23;8.23;;;18.70;99.90;;;;;;5038731;28;20503;-83
2021/09/10 00:22:26;;;;;;;12.60;9.67;;;18.70;99.90;;;;;;5040602;28;20267;-83
2021/09/10 00:24:51;;;;;;;9.73;8.17;;;18.80;99.90;;;;;;5029333;28;20165;-85
2021/09/10 00:27:17;;;;;;;9.90;8.37;;;18.90;99.90;;;;;;5026126;28;20209;-84
2021/09/10 00:29:43;;;;;;;9.93;7.80;;;18.90;99.90;;;;;;5031005;28;20196;-84
2021/09/10 00:32:09;;;;;;;9.80;8.90;;;18.90;99.90;;;;;;5030467;28;20162;-84
2021/09/10 00:34:35;;;;;;;8.33;7.57;;;18.90;99.90;;;;;;5041375;28;20245;-84
2021/09/10 00:37:01;;;;;;;10.83;7.83;;;18.70;99.90;;;;;;5022092;28;20397;-84
2021/09/10 00:39:27;;;;;;;8.90;8.00;;;18.70;99.90;;;;;;5038462;28;20221;-84
2021/09/10 00:41:52;;;;;;;8.23;7.30;;;18.70;99.90;;;;;;5023552;28;20256;-84
2021/09/10 00:44:18;;;;;;;12.83;8.00;;;18.70;99.90;;;;;;5022807;28;20197;-84
2021/09/10 00:46:45;;;;;;;8.40;7.60;;;18.60;99.90;;;;;;4990032;28;20161;-84
2021/09/10 00:49:11;;;;;;;9.67;8.70;;;18.60;99.90;;;;;;5023071;28;20396;-84
2021/09/10 00:51:37;;;;;;;9.03;7.63;;;18.50;99.90;;;;;;5028994;28;20554;-84
2021/09/10 00:54:03;;;;;;;8.87;7.97;;;18.50;99.90;;;;;;5029168;28;20309;-83
2021/09/10 00:56:29;;;;;;;11.17;8.47;;;18.50;99.90;;;;;;5028463;28;20400;-85
2021/09/10 00:58:56;;;;;;;9.63;8.30;;;18.50;99.90;;;;;;5027394;28;20936;-84
2021/09/10 01:01:23;;;;;;;11.60;7.50;;;18.40;99.90;;;;;;5027791;28;20169;-84
2021/09/10 01:03:49;;;;;;;9.93;7.17;;;18.40;99.90;;;;;;5028221;28;20404;-84
2021/09/10 01:06:15;;;;;;;10.37;8.17;;;18.40;99.90;;;;;;5027232;28;20512;-84
2021/09/10 01:08:42;;;;;;;9.40;8.40;;;18.30;99.90;;;;;;5011897;28;20207;-84
2021/09/10 01:11:09;;;;;;;12.07;9.73;;;18.30;99.90;;;;;;5034568;28;20480;-85
2021/09/10 01:13:35;;;;;;;13.43;9.53;;;18.20;99.90;;;;;;5027307;28;20425;-84
2021/09/10 01:16:02;;;;;;;10.87;8.57;;;18.30;99.90;;;;;;5024238;28;20400;-84
2021/09/10 01:18:27;;;;;;;8.00;7.20;;;18.30;99.90;;;;;;5023833;28;20406;-84
2021/09/10 01:20:53;;;;;;;8.03;7.23;;;18.30;99.90;;;;;;5026222;28;20491;-84
2021/09/10 01:23:19;;;;;;;10.03;8.00;;;18.30;99.90;;;;;;5024787;28;20166;-84
2021/09/10 01:25:45;;;;;;;9.73;8.33;;;18.20;99.90;;;;;;5025588;28;20195;-84
2021/09/10 01:28:11;;;;;;;10.13;9.07;;;18.20;99.90;;;;;;5024970;28;20180;-84
2021/09/10 01:30:37;;;;;;;9.00;7.30;;;18.20;99.90;;;;;;5025239;28;20637;-84
2021/09/10 01:33:06;;;;;;;7.07;6.37;;;18.10;99.90;;;;;;5024328;28;20392;-84
2021/09/10 01:35:32;;;;;;;8.00;7.03;;;18.10;99.90;;;;;;5025021;28;20495;-84
2021/09/10 01:37:58;;;;;;;8.30;7.50;;;18.10;99.90;;;;;;5006872;28;20475;-84
2021/09/10 01:40:25;;;;;;;6.73;6.10;;;18.10;99.90;;;;;;5024859;28;20428;-84
2021/09/10 01:42:51;;;;;;;7.57;6.93;;;18.10;99.90;;;;;;5024577;28;20165;-84
2021/09/10 01:45:19;;;;;;;10.70;7.00;;;18.00;99.90;;;;;;5024250;28;20473;-84
2021/09/10 01:47:45;;;;;;;8.13;6.57;;;18.00;99.90;;;;;;5023221;28;20889;-84
2021/09/10 01:50:15;;;;;;;7.43;6.73;;;17.90;99.90;;;;;;5039091;28;20443;-84
2021/09/10 01:52:41;;;;;;;7.83;7.00;;;17.90;99.90;;;;;;5023726;28;20400;-83
2021/09/10 01:55:08;;;;;;;7.63;6.83;;;17.90;99.90;;;;;;5024063;28;20401;-84
2021/09/10 01:57:34;;;;;;;8.27;7.40;;;17.90;99.90;;;;;;5023182;28;20176;-84
2021/09/10 02:00:01;;;;;;;16.13;7.50;;;18.00;99.90;;;;;;5022775;28;20393;-84
2021/09/10 02:02:26;;;;;;;8.67;7.57;;;18.00;99.90;;;;;;5022743;28;20401;-84
2021/09/10 02:04:53;;;;;;;9.50;7.90;;;18.00;99.90;;;;;;5023512;28;20401;-84
2021/09/10 02:07:18;;;;;;;9.67;7.30;;;17.80;99.90;;;;;;5024201;28;20171;-84
2021/09/10 02:09:44;;;;;;;11.27;7.37;;;17.80;99.90;;;;;;5022810;28;20527;-84
2021/09/10 02:12:10;;;;;;;11.00;8.20;;;17.70;99.90;;;;;;4990068;28;20166;-84
2021/09/10 02:14:36;;;;;;;9.47;8.57;;;17.70;99.90;;;;;;5023122;28;20162;-84
2021/09/10 02:17:03;;;;;;;9.93;8.23;;;17.60;99.90;;;;;;5022980;28;20162;-84
2021/09/10 02:19:29;;;;;;;8.43;7.70;;;17.60;99.90;;;;;;5022971;28;20408;-83
2021/09/10 02:21:55;;;;;;;8.93;7.77;;;17.50;99.90;;;;;;5022586;28;20397;-84
2021/09/10 02:24:21;;;;;;;9.73;8.50;;;17.60;99.90;;;;;;5023257;28;20170;-82
2021/09/10 02:26:49;;;;;;;10.20;9.23;;;17.60;99.90;;;;;;5023382;28;20423;-83
2021/09/10 02:29:15;;;;;;;12.80;8.90;;;17.60;99.90;;;;;;5023305;28;20193;-83
2021/09/10 02:31:41;;;;;;;12.33;8.43;;;17.50;99.90;;;;;;5038648;28;20400;-83
2021/09/10 02:34:08;;;;;;;8.67;7.90;;;17.50;99.90;;;;;;5022671;28;20393;-83
2021/09/10 02:36:35;;;;;;;8.87;8.00;;;17.50;99.90;;;;;;5005593;28;20173;-84
2021/09/10 02:39:05;;;;;;;9.50;8.50;;;17.50;99.90;;;;;;5023870;28;20388;-83
2021/09/10 02:41:31;;;;;;;9.50;8.50;;;17.50;99.90;;;;;;5022096;28;20424;-83
2021/09/10 02:43:56;;;;;;;11.70;8.57;;;17.50;99.90;;;;;;5022616;28;20388;-83
2021/09/10 02:46:22;;;;;;;9.53;8.63;;;17.40;99.90;;;;;;5023110;28;20419;-83
2021/09/10 02:48:48;;;;;;;13.20;9.77;;;17.30;99.90;;;;;;5022015;28;20277;-83
2021/09/10 02:51:14;;;;;;;11.50;9.90;;;17.20;99.90;;;;;;5023671;28;20520;-83
2021/09/10 02:53:40;;;;;;;9.30;8.50;;;17.20;99.90;;;;;;5022791;28;20220;-83
2021/09/10 02:56:06;;;;;;;11.87;9.17;;;17.10;99.90;;;;;;5038408;28;20162;-83
2021/09/10 02:58:31;;;;;;;9.37;8.47;;;17.20;99.90;;;;;;5023616;28;20169;-83
2021/09/10 03:00:59;;;;;;;9.70;8.23;;;17.20;99.90;;;;;;5022531;28;20173;-83
2021/09/10 03:03:27;;;;;;;11.93;9.60;;;17.30;99.90;;;;;;5022875;28;20165;-83
2021/09/10 03:05:53;;;;;;;10.10;8.50;;;17.40;99.90;;;;;;5022807;28;20408;-83
2021/09/10 03:08:19;;;;;;;9.90;8.90;;;17.30;99.90;;;;;;5022884;28;20436;-83
2021/09/10 03:10:45;;;;;;;10.50;8.73;;;17.30;99.90;;;;;;5022939;28;20999;-83
2021/09/10 03:13:10;;;;;;;14.60;9.03;;;17.20;99.90;;;;;;5022795;28;20161;-83
2021/09/10 03:15:37;;;;;;;13.17;9.87;;;17.20;99.90;;;;;;5022611;28;20158;-83
2021/09/10 03:18:02;;;;;;;10.50;9.40;;;17.30;99.90;;;;;;5021321;28;20397;-83
2021/09/10 03:20:29;;;;;;;8.93;7.70;;;17.20;99.90;;;;;;5037322;28;20561;-83
2021/09/10 03:22:55;;;;;;;16.23;9.10;;;17.20;99.90;;;;;;5037557;28;20280;-84
2021/09/10 03:25:20;;;;;;;12.03;9.70;;;17.20;99.90;;;;;;5021282;28;20768;-84
2021/09/10 03:27:46;;;;;;;12.83;10.20;;;17.20;99.90;;;;;;5022678;28;20166;-83
2021/09/10 03:30:12;;;;;;;16.53;11.13;;;17.10;99.90;;;;;;5021321;28;20657;-83
2021/09/10 03:32:39;;;;;;;14.90;9.17;;;17.00;99.90;;;;;;5022611;28;20161;-83
2021/09/10 03:35:05;;;;;;;18.73;9.87;;;17.00;99.90;;;;;;5022468;28;20165;-83
2021/09/10 03:37:31;;;;;;;14.13;9.33;;;17.10;99.90;;;;;;5021929;28;20419;-83
2021/09/10 03:39:57;;;;;;;9.23;8.37;;;17.20;99.90;;;;;;5021019;28;20416;-83
2021/09/10 03:42:24;;;;;;;9.43;7.87;;;17.10;99.90;;;;;;5022152;28;20491;-83
2021/09/10 03:44:50;;;;;;;11.27;8.90;;;17.10;99.90;;;;;;5020853;28;20393;-83
2021/09/10 03:47:16;;;;;;;15.27;10.43;;;17.20;99.90;;;;;;5021578;28;20857;-83
2021/09/10 03:49:41;;;;;;;10.07;9.00;;;17.00;99.90;;;;;;5020424;28;20454;-83
2021/09/10 03:52:07;;;;;;;11.30;9.60;;;17.00;99.90;;;;;;5026717;28;20518;-83
2021/09/10 03:54:36;;;;;;;14.90;10.43;;;17.00;99.90;;;;;;5025438;28;20221;-83
2021/09/10 03:57:02;;;;;;;12.17;9.73;;;16.90;99.90;;;;;;5022263;28;20401;-83
2021/09/10 03:59:28;;;;;;;11.47;10.23;;;16.90;99.90;;;;;;5021260;28;20205;-83
2021/09/10 04:01:54;;;;;;;10.83;9.80;;;16.80;99.90;;;;;;5021038;28;20392;-83
2021/09/10 04:04:20;;;;;;;12.90;10.00;;;16.70;99.90;;;;;;5021289;28;20177;-84
2021/09/10 04:06:45;;;;;;;14.57;10.70;;;16.70;99.90;;;;;;5022459;28;20169;-83
2021/09/10 04:09:11;;;;;;;11.13;9.87;;;16.60;99.90;;;;;;5021782;28;20804;-83
2021/09/10 04:11:37;;;;;;;10.87;9.67;;;16.70;99.90;;;;;;5021253;28;20200;-83
2021/09/10 04:14:04;;;;;;;11.83;10.60;;;16.70;99.90;;;;;;5026008;28;20169;-83
2021/09/10 04:16:30;;;;;;;14.47;10.23;;;16.70;99.90;;;;;;5025493;28;20399;-83
2021/09/10 04:18:56;;;;;;;14.27;9.20;;;16.80;99.90;;;;;;5026858;28;20388;-83
2021/09/10 04:21:21;;;;;;;14.33;10.07;;;16.70;99.90;;;;;;5026446;28;20170;-84
2021/09/10 04:23:47;;;;;;;12.90;10.07;;;16.80;99.90;;;;;;5030471;28;20229;-83
2021/09/10 04:26:13;;;;;;;10.77;9.70;;;16.70;99.90;;;;;;5031609;28;20229;-83
2021/09/10 04:28:39;;;;;;;11.13;9.93;;;16.80;99.90;;;;;;5031531;28;20166;-83
2021/09/10 04:31:05;;;;;;;15.80;11.67;;;16.70;99.90;;;;;;5028711;28;20193;-83
2021/09/10 04:33:31;;;;;;;11.80;10.30;;;16.70;99.90;;;;;;5030571;28;20582;-83
2021/09/10 04:35:56;;;;;;;16.30;10.60;;;16.80;99.90;;;;;;5030866;28;20396;-83
2021/09/10 04:38:22;;;;;;;15.10;10.13;;;16.70;99.90;;;;;;5030469;28;20292;-83
2021/09/10 04:40:48;;;;;;;12.80;10.77;;;16.70;99.90;;;;;;5029609;28;20161;-83
2021/09/10 04:43:14;;;;;;;12.53;10.57;;;16.80;99.90;;;;;;5029758;28;20166;-83
2021/09/10 04:45:39;;;;;;;16.50;11.67;;;16.70;99.90;;;;;;5029722;28;20165;-83
2021/09/10 04:48:05;;;;;;;11.23;10.10;;;16.70;99.90;;;;;;5030273;28;20179;-82
2021/09/10 04:50:31;;;;;;;19.03;10.30;;;16.80;99.90;;;;;;5029251;28;20203;-83
2021/09/10 04:52:57;;;;;;;14.20;9.20;;;16.80;99.90;;;;;;5028287;28;20323;-83
2021/09/10 04:55:23;;;;;;;12.60;10.20;;;16.80;99.90;;;;;;5030232;28;20165;-83
2021/09/10 04:57:48;;;;;;;10.17;9.10;;;17.00;99.90;;;;;;5028054;28;20189;-83
2021/09/10 05:00:14;;;;;;;15.80;10.83;;;17.00;99.90;;;;;;5028442;28;20169;-82
2021/09/10 05:02:41;;;;;;;13.40;10.97;;;16.90;99.90;;;;;;5028025;28;20200;-83
2021/09/10 05:05:08;;;;;;;11.30;10.23;;;16.90;99.90;;;;;;5032130;28;20169;-83
2021/09/10 05:07:34;;;;;;;17.60;12.37;;;17.10;99.90;;;;;;5038071;28;20428;-83
2021/09/10 05:10:00;;;;;;;13.03;10.40;;;17.10;99.90;;;;;;5038943;28;20475;-83
2021/09/10 05:12:26;;;;;;;11.17;9.93;;;17.00;99.90;;;;;;5034885;28;20401;-83
2021/09/10 05:14:52;;;;;;;17.40;10.00;;;16.90;99.90;;;;;;5032901;28;20222;-83
2021/09/10 05:17:19;;;;;;;13.43;10.50;;;17.00;99.90;;;;;;5032608;28;20248;-84
2021/09/10 05:19:45;;;;;;;14.30;10.37;;;16.90;99.90;;;;;;5030085;28;20403;-83
2021/09/10 05:22:11;;;;;;;14.73;10.37;;;16.90;99.90;;;;;;5028886;28;20400;-83
2021/09/10 05:24:37;;;;;;;12.57;10.73;;;16.80;99.90;;;;;;5028745;28;20161;-83
2021/09/10 05:27:04;;;;;;;15.03;11.60;;;17.00;99.90;;;;;;5028294;28;20162;-83
2021/09/10 05:29:30;;;;;;;14.10;11.07;;;17.10;99.90;;;;;;5029563;28;20396;-83
2021/09/10 05:31:56;;;;;;;11.93;10.70;;;17.10;99.90;;;;;;5030570;28;20400;-83
2021/09/10 05:34:22;;;;;;;11.47;10.27;;;17.10;99.90;;;;;;5029286;28;20694;-83
2021/09/10 05:36:47;;;;;;;14.40;10.83;;;17.00;99.90;;;;;;5028914;28;20165;-83
2021/09/10 05:39:13;;;;;;;11.80;10.63;;;17.10;99.90;;;;;;5027762;28;20161;-83
2021/09/10 05:41:39;;;;;;;13.47;11.87;;;17.20;99.90;;;;;;5027835;28;20165;-83
2021/09/10 05:44:05;;;;;;;13.30;10.97;;;17.20;99.90;;;;;;5027561;28;20208;-83
2021/09/10 05:46:30;;;;;;;12.23;10.50;;;17.20;99.90;;;;;;5029436;28;20268;-83
2021/09/10 05:48:59;;;;;;;21.77;12.50;;;17.30;99.90;;;;;;5028782;28;20395;-83
2021/09/10 05:51:24;;;;;;;13.70;10.60;;;17.50;99.90;;;;;;5028812;28;20268;-83
2021/09/10 05:53:50;;;;;;;10.17;9.27;;;17.60;99.90;;;;;;5026297;28;20949;-84
2021/09/10 05:56:16;;;;;;;12.80;10.80;;;17.60;99.90;;;;;;5035967;28;20182;-83
2021/09/10 05:58:42;;;;;;;13.77;10.77;;;17.80;99.90;;;;;;5009337;28;20162;-83
2021/09/10 06:01:08;;;;;;;11.80;10.13;;;17.80;99.90;;;;;;4991612;28;20584;-83
2021/09/10 06:03:33;;;;;;;18.13;10.33;;;17.70;99.90;;;;;;4991551;28;20578;-83
2021/09/10 06:05:59;;;;;;;10.67;9.00;;;17.80;99.90;;;;;;5008903;28;20670;-83
2021/09/10 06:08:25;;;;;;;13.30;9.57;;;17.70;99.90;;;;;;5008630;28;20206;-84
2021/09/10 06:10:51;;;;;;;12.23;10.93;;;17.70;99.90;;;;;;5010063;28;20201;-84
2021/09/10 06:13:17;;;;;;;11.40;8.97;;;17.70;99.90;;;;;;5012472;28;20557;-84
2021/09/10 06:15:44;;;;;;;10.33;9.30;;;17.70;99.90;;;;;;5013166;28;20381;-84
2021/09/10 06:18:10;;;;;;;12.10;10.53;;;17.60;99.90;;;;;;5012759;28;20754;-84
2021/09/10 06:20:36;;;;;;;14.53;11.40;;;17.60;99.90;;;;;;5011457;28;20431;-84
2021/09/10 06:23:02;;;;;;;17.13;12.47;;;17.80;99.90;;;;;;5021030;28;20196;-83
2021/09/10 06:25:27;;;;;;;14.90;10.70;;;17.60;99.90;;;;;;5011321;28;20154;-86
2021/09/10 06:27:53;;;;;;;11.70;10.40;;;17.70;99.90;;;;;;5004949;28;20197;-85
2021/09/10 06:30:20;;;;;;;14.87;11.20;;;17.80;99.90;;;;;;5019739;28;20311;-85
2021/09/10 06:32:47;;;;;;;14.33;12.00;;;18.00;99.90;;;;;;5021457;28;20404;-85
2021/09/10 06:35:13;;;;;;;17.13;12.40;;;18.30;99.90;;;;;;5021044;28;20402;-85
2021/09/10 06:37:39;;;;;;;16.20;10.90;;;18.40;99.90;;;;;;5021430;28;20481;-85
2021/09/10 06:40:06;;;;;;;12.90;10.63;;;18.60;99.90;;;;;;5019210;28;20165;-85
2021/09/10 06:42:32;;;;;;;10.30;9.23;;;18.50;99.90;;;;;;5021029;28;20467;-85
2021/09/10 06:44:58;;;;;;;11.50;9.70;;;18.60;99.90;;;;;;5021123;28;20408;-86
2021/09/10 06:47:24;;;;;;;11.13;10.03;;;18.70;99.90;;;;;;5021065;28;20401;-85
2021/09/10 06:49:50;;;;;;;14.03;9.97;;;18.80;99.90;;;;;;5020440;28;20197;-85
2021/09/10 06:52:16;;;;;;;16.37;10.40;;;18.90;99.90;;;;;;5020739;28;20840;-86
2021/09/10 06:54:42;;;;;;;17.67;10.10;;;19.00;99.90;;;;;;5019850;28;20928;-85
2021/09/10 06:57:08;;;;;;;12.60;10.40;;;19.00;99.90;;;;;;5020367;28;20434;-84
2021/09/10 06:59:34;;;;;;;12.93;11.60;;;19.00;99.90;;;;;;5021017;28;20166;-85
2021/09/10 07:01:59;;;;;;;11.77;10.60;;;19.00;99.90;;;;;;5021438;28;20161;-85
2021/09/10 07:04:25;;;;;;;10.60;8.80;;;19.00;99.90;;;;;;5014248;28;20181;-85
2021/09/10 07:06:51;;;;;;;10.30;9.40;;;19.00;99.90;;;;;;5022288;28;20176;-85
2021/09/10 07:09:17;;;;;;;12.07;9.37;;;19.20;99.90;;;;;;5020071;28;20212;-85
2021/09/10 07:11:42;;;;;;;13.63;8.87;;;19.30;99.90;;;;;;5004414;28;20201;-85
2021/09/10 07:14:09;;;;;;;11.30;9.00;;;19.60;99.90;;;;;;5032808;28;20178;-85
2021/09/10 07:16:34;;;;;;;9.53;8.60;;;19.50;99.90;;;;;;5021280;28;20161;-86
2021/09/10 07:19:00;;;;;;;8.80;8.03;;;19.60;99.90;;;;;;5006539;28;20420;-85
2021/09/10 07:21:27;;;;;;;11.27;9.60;;;19.60;99.90;;;;;;5010823;28;20268;-85
2021/09/10 07:23:52;;;;;;;17.67;9.97;;;19.80;99.90;;;;;;5002700;28;20460;-84
2021/09/10 07:26:18;;;;;;;10.13;9.13;;;19.90;99.90;;;;;;5016415;28;20626;-85
2021/09/10 07:28:44;;;;;;;16.30;9.33;;;19.90;99.90;;;;;;5017199;28;20421;-86
2021/09/10 07:31:10;;;;;;;10.17;9.17;;;19.80;99.90;;;;;;5000597;28;20200;-85
2021/09/10 07:33:42;;;;;;;10.20;9.20;;;19.80;99.90;;;;;;5008569;28;20217;-85
2021/09/10 07:36:08;;;;;;;11.13;10.03;;;20.00;99.90;;;;;;5005740;28;20158;-86
2021/09/10 07:38:36;;;;;;;12.30;9.37;;;20.00;99.90;;;;;;5013970;28;20422;-85
2021/09/10 07:41:04;;;;;;;10.80;9.87;;;20.00;99.90;;;;;;5003436;28;20390;-85
2021/09/10 07:43:32;;;;;;;10.73;9.63;;;20.00;99.90;;;;;;5008618;28;20418;-85
2021/09/10 07:45:58;;;;;;;9.70;8.80;;;20.10;99.90;;;;;;5005678;28;20427;-86
2021/09/10 07:48:23;;;;;;;14.43;10.97;;;20.10;99.90;;;;;;5021430;28;20440;-85
2021/09/10 07:50:49;;;;;;;11.37;8.73;;;20.30;99.90;;;;;;5002311;28;20234;-85
2021/09/10 07:53:15;;;;;;;13.70;9.93;;;20.30;99.90;;;;;;5019635;28;20229;-85
2021/09/10 07:55:41;;;;;;;14.23;9.40;;;20.50;99.90;;;;;;5018441;28;20177;-86
2021/09/10 07:58:12;;;;;;;15.00;9.50;;;20.30;99.90;;;;;;5016774;28;20247;-86
2021/09/10 08:00:40;;;;;;;13.20;9.63;;;20.60;99.90;;;;;;5011395;28;20559;-85
2021/09/10 08:03:06;;;;;;;11.10;9.90;;;20.60;99.90;;;;;;5018726;28;20424;-86
2021/09/10 08:05:32;;;;;;;14.47;9.30;;;20.60;99.90;;;;;;5014249;28;20444;-84
2021/09/10 08:07:58;;;;;;;10.10;8.87;;;20.60;99.90;;;;;;4983475;28;20393;-85
2021/09/10 08:10:24;;;;;;;11.80;9.57;;;20.70;99.90;;;;;;5002368;28;20197;-84
2021/09/10 08:12:50;;;;;;;9.33;8.23;;;20.70;99.90;;;;;;5010799;28;20337;-84
2021/09/10 08:15:17;;;;;;;11.53;9.47;;;21.00;99.90;;;;;;5006998;28;20166;-86
2021/09/10 08:17:43;;;;;;;12.50;9.83;;;21.00;99.90;;;;;;5000455;28;20846;-85
2021/09/10 08:20:12;;;;;;;11.70;9.77;;;21.10;99.90;;;;;;5011447;28;20417;-86
2021/09/10 08:22:38;;;;;;;11.87;8.77;;;21.30;99.90;;;;;;5012791;28;20416;-85
2021/09/10 08:25:06;;;;;;;12.90;10.00;;;21.30;99.90;;;;;;5006887;28;20425;-86
2021/09/10 08:27:32;;;;;;;10.20;8.77;;;21.30;99.90;;;;;;5018660;28;20389;-85
2021/09/10 08:29:59;;;;;;;8.13;7.40;;;21.60;99.90;;;;;;5004286;28;20453;-86
2021/09/10 08:32:26;;;;;;;10.57;9.57;;;21.80;99.90;;;;;;5001225;28;20177;-85
2021/09/10 08:34:55;;;;;;;11.50;9.00;;;21.90;99.90;;;;;;5019526;28;20392;-85
2021/09/10 08:37:22;;;;;;;9.90;8.90;;;21.80;99.90;;;;;;5001645;28;20414;-85
2021/09/10 08:39:48;;;;;;;13.33;10.97;;;21.80;99.90;;;;;;5000729;28;20279;-86
2021/09/10 08:42:14;;;;;;;9.80;8.50;;;22.00;99.90;;;;;;5031142;28;20420;-85
2021/09/10 08:44:43;;;;;;;9.73;8.87;;;22.30;99.90;;;;;;5017534;28;20187;-86
2021/09/10 08:47:10;;;;;;;9.50;8.63;;;22.30;99.90;;;;;;5009771;28;20416;-86
2021/09/10 08:49:38;;;;;;;8.60;7.80;;;22.10;99.90;;;;;;5015989;28;20444;-83
2021/09/10 08:52:04;;;;;;;10.87;9.87;;;22.10;99.90;;;;;;5018629;28;20407;-84
2021/09/10 08:54:33;;;;;;;11.10;9.87;;;22.40;99.90;;;;;;5017511;28;20468;-85
2021/09/10 08:56:59;;;;;;;9.50;8.10;;;22.60;99.90;;;;;;4999890;28;20788;-84
2021/09/10 08:59:26;;;;;;;10.27;8.97;;;22.50;99.90;;;;;;5017179;28;20458;-84
2021/09/10 09:01:54;;;;;;;34.03;31.30;;;22.70;99.90;;;;;;5011669;28;20463;-84
2021/09/10 09:04:22;;;;;;;10.33;9.60;;;22.80;99.90;;;;;;5015099;28;20447;-86
2021/09/10 09:06:52;;;;;;;8.10;7.40;;;23.20;99.90;;;;;;5020388;28;20519;-85
2021/09/10 09:09:41;;;;;;;10.03;9.13;;;23.10;99.90;;;;;;5022509;28;20447;-86
2021/09/10 09:12:30;;;;;;;8.60;7.83;;;23.30;99.90;;;;;;5020357;28;20418;-86
2021/09/10 09:15:05;;;;;;;9.73;7.20;;;23.50;99.90;;;;;;5010829;28;20404;-86
2021/09/10 09:17:34;;;;;;;9.30;8.40;;;23.70;99.90;;;;;;5020497;28;20400;-85
2021/09/10 09:20:21;;;;;;;10.87;8.37;;;23.40;99.90;;;;;;5022878;28;20412;-85
2021/09/10 09:23:00;;;;;;;9.07;8.17;;;23.40;99.90;;;;;;5022458;28;20471;-86
2021/09/10 09:25:30;;;;;;;11.00;7.97;;;24.10;99.90;;;;;;5024404;28;21109;-86
2021/09/10 09:28:12;;;;;;;8.53;7.63;;;24.50;99.90;;;;;;5023647;28;20411;-85
2021/09/10 09:30:39;;;;;;;8.53;7.73;;;24.70;99.90;;;;;;5041034;28;20553;-85
2021/09/10 09:33:06;;;;;;;11.83;8.00;;;25.00;99.90;;;;;;5026204;28;20412;-86
2021/09/10 09:35:33;;;;;;;8.70;7.90;;;24.90;99.90;;;;;;5023521;28;20471;-85
2021/09/10 09:38:09;;;;;;;10.23;7.83;;;24.30;99.90;;;;;;5023567;28;20397;-84
2021/09/10 09:40:35;;;;;;;9.10;8.07;;;24.50;99.90;;;;;;5013771;28;20425;-86
2021/09/10 09:43:13;;;;;;;8.70;7.40;;;25.00;99.90;;;;;;5004324;28;20424;-85
2021/09/10 09:45:39;;;;;;;9.17;8.40;;;25.00;99.90;;;;;;5006767;28;20215;-86
2021/09/10 09:48:10;;;;;;;8.37;7.73;;;25.70;99.90;;;;;;5023396;28;20817;-85
2021/09/10 09:50:37;;;;;;;9.13;8.27;;;24.70;99.90;;;;;;5022839;28;20253;-86
2021/09/10 09:53:03;;;;;;;8.83;7.70;;;25.40;99.90;;;;;;5004888;28;20453;-86
2021/09/10 09:55:30;;;;;;;8.27;6.87;;;26.00;99.90;;;;;;5011428;28;20516;-86
2021/09/10 09:57:56;;;;;;;12.43;8.60;;;26.20;99.90;;;;;;5004311;28;20415;-86
2021/09/10 10:00:22;;;;;;;8.53;7.60;;;26.60;99.90;;;;;;5002394;28;20793;-86
2021/09/10 10:02:48;;;;;;;8.60;7.80;;;26.90;99.90;;;;;;5013490;28;20311;-86
2021/09/10 10:05:17;;;;;;;7.13;6.63;;;26.30;99.90;;;;;;5031876;28;20439;-86
2021/09/10 10:07:56;;;;;;;11.90;7.70;;;26.50;99.90;;;;;;5020455;28;20180;-86
2021/09/10 10:10:26;;;;;;;7.23;6.53;;;26.70;99.90;;;;;;5023170;28;20439;-86
2021/09/10 10:12:57;;;;;;;7.50;6.70;;;25.90;99.90;;;;;;5023190;28;20392;-85
2021/09/10 10:15:26;;;;;;;7.07;6.30;;;25.80;99.90;;;;;;5021520;28;20452;-86
2021/09/10 10:17:53;;;;;;;7.67;6.87;;;26.80;99.90;;;;;;5020917;28;20388;-83
2021/09/10 10:20:48;;;;;;;7.70;6.97;;;26.40;99.90;;;;;;5022293;28;20400;-86
2021/09/10 10:23:49;;;;;;;7.40;6.50;;;26.70;99.90;;;;;;5002242;28;20432;-86
2021/09/10 10:26:18;;;;;;;7.70;7.00;;;27.10;99.90;;;;;;5003605;28;21067;-85
2021/09/10 10:28:46;;;;;;;6.70;6.20;;;27.00;99.90;;;;;;5015216;28;20474;-85
2021/09/10 10:31:14;;;;;;;7.17;5.80;;;27.80;99.90;;;;;;5007000;28;20451;-84
2021/09/10 10:34:07;;;;;;;7.13;6.53;;;28.40;99.90;;;;;;5011113;28;20448;-86
2021/09/10 10:36:37;;;;;;;6.03;5.53;;;28.10;99.90;;;;;;5026663;28;20415;-86
2021/09/10 10:39:27;;;;;;;7.80;7.10;;;28.00;99.90;;;;;;5024211;28;20439;-86
2021/09/10 10:41:56;;;;;;;5.90;5.40;;;27.70;99.90;;;;;;5006009;28;20521;-86
2021/09/10 10:44:45;;;;;;;7.00;6.40;;;28.50;99.90;;;;;;5011583;28;21128;-86
2021/09/10 10:47:13;;;;;;;7.20;6.50;;;27.80;99.90;;;;;;5001342;28;20761;-86
2021/09/10 10:49:45;;;;;;;11.53;6.00;;;28.80;99.90;;;;;;5008589;28;20916;-86
2021/09/10 10:52:40;;;;;;;6.43;5.93;;;29.20;99.90;;;;;;5011719;28;20475;-86
2021/09/10 10:55:25;;;;;;;7.73;7.03;;;30.20;99.90;;;;;;5014674;28;20456;-86
2021/09/10 10:57:54;;;;;;;7.32;6.63;;;30.10;99.90;;;;;;5014362;28;20501;-86
2021/09/10 11:00:47;;;;;;;10.73;7.33;;;29.00;99.90;;;;;;5002227;28;20170;-86
2021/09/10 11:03:35;;;;;;;7.77;7.20;;;29.20;99.90;;;;;;5013453;28;20435;-86
2021/09/10 11:06:25;;;;;;;7.40;6.60;;;28.50;99.90;;;;;;5019037;28;20434;-86
2021/09/10 11:08:55;;;;;;;6.87;6.33;;;28.70;99.90;;;;;;5018562;28;20444;-86
2021/09/10 11:11:25;;;;;;;9.00;8.20;;;29.20;99.90;;;;;;5002228;28;20266;-85
2021/09/10 11:13:52;;;;;;;7.63;7.03;;;28.50;99.90;;;;;;4996571;28;20417;-86
2021/09/10 11:16:27;;;;;;;9.53;8.40;;;28.90;99.90;;;;;;5010896;28;20411;-86
2021/09/10 11:18:53;;;;;;;7.73;6.97;;;29.00;99.90;;;;;;5000268;28;20447;-85
2021/09/10 11:21:29;;;;;;;9.50;8.57;;;29.10;99.90;;;;;;5000785;28;20180;-86
2021/09/10 11:23:55;;;;;;;7.55;6.85;;;29.30;99.90;;;;;;4999292;28;20412;-85
2021/09/10 11:26:21;;;;;;;9.32;7.85;;;29.10;99.90;;;;;;5000736;28;20176;-86
2021/09/10 11:28:46;;;;;;;7.38;6.78;;;29.00;99.90;;;;;;5000780;28;20592;-86
2021/09/10 11:31:12;;;;;;;7.30;6.78;;;29.80;99.90;;;;;;5001021;28;20200;-86
2021/09/10 11:33:51;;;;;;;7.43;6.82;;;30.60;99.90;;;;;;4998913;28;20221;-86
2021/09/10 11:36:33;;;;;;;8.18;7.45;;;29.20;99.90;;;;;;4998855;28;20331;-86
2021/09/10 11:39:02;;;;;;;7.13;6.63;;;29.30;99.90;;;;;;4999254;28;20193;-86
2021/09/10 11:41:37;;;;;;;7.18;6.47;;;29.40;99.90;;;;;;5002342;28;20176;-86
2021/09/10 11:44:12;;;;;;;6.43;5.93;;;30.90;99.30;;;;;;4999008;28;20164;-85
2021/09/10 11:46:40;;;;;;;7.75;7.15;;;30.40;97.60;;;;;;4999148;28;20261;-86
2021/09/10 11:49:07;;;;;;;8.40;7.70;;;29.80;99.00;;;;;;4998833;28;20169;-86
2021/09/10 11:51:42;;;;;;;9.13;8.45;;;31.00;98.20;;;;;;4999974;28;20251;-86
2021/09/10 11:54:10;;;;;;;8.20;7.50;;;30.40;97.60;;;;;;5007026;28;20617;-86
2021/09/10 11:56:36;;;;;;;8.38;7.65;;;31.30;97.00;;;;;;5019051;28;20200;-86
2021/09/10 11:59:17;;;;;;;7.32;6.65;;;30.60;96.80;;;;;;5019257;28;20157;-86
2021/09/10 12:01:43;;;;;;;11.23;10.27;;;29.90;97.10;;;;;;5020331;28;20184;-86
2021/09/10 12:04:24;;;;;;;9.05;8.13;;;30.00;97.80;;;;;;5009684;28;20193;-86
2021/09/10 12:06:52;;;;;;;8.20;7.18;;;30.50;96.80;;;;;;5001704;28;20240;-86
2021/09/10 12:09:22;;;;;;;8.10;7.45;;;30.60;97.30;;;;;;5001201;28;20242;-86
2021/09/10 12:12:14;;;;;;;9.27;8.48;;;30.00;97.20;;;;;;5001027;28;20228;-86
2021/09/10 12:14:43;;;;;;;9.43;8.55;;;30.30;97.60;;;;;;5017272;28;20220;-86
2021/09/10 12:17:14;;;;;;;6.85;6.25;;;30.10;99.00;;;;;;5001252;28;20177;-86
2021/09/10 12:19:59;;;;;;;7.25;6.68;;;30.20;97.90;;;;;;5017411;28;20184;-86
2021/09/10 12:22:43;;;;;;;8.48;7.78;;;29.90;98.00;;;;;;5017149;28;20298;-86
2021/09/10 12:25:24;;;;;;;7.45;6.93;;;28.60;99.70;;;;;;5016360;28;20184;-85
2021/09/10 12:28:10;;;;;;;10.70;9.02;;;28.70;99.90;;;;;;5016976;28;20176;-85
2021/09/10 12:30:40;;;;;;;8.50;7.75;;;29.10;99.90;;;;;;5016616;28;20281;-86
2021/09/10 12:33:09;;;;;;;9.20;8.40;;;29.70;99.90;;;;;;5016823;28;20169;-86
2021/09/10 12:35:36;;;;;;;16.35;8.38;;;29.60;98.00;;;;;;5018588;28;20271;-86
2021/09/10 12:38:06;;;;;;;10.27;7.72;;;29.40;99.30;;;;;;5016963;28;20196;-86
2021/09/10 12:40:38;;;;;;;13.00;9.52;;;30.20;97.60;;;;;;5017673;28;20653;-86
2021/09/10 12:43:06;;;;;;;8.35;7.65;;;30.10;98.50;;;;;;5020379;28;20192;-86